Time;durP1;ratioP1;P1;durP2;ratioP2;P2;SDS_P1;SDS_P2;PMS_P1;PMS_P2;Temp;Humidity;BMP_temperature;BMP_pressure;BME280_temperature;BME280_humidity;BME280_pressure;Samples;Min_cycle;Max_cycle;Signal;HPM_P1;HPM_P2
2023/03/20 00:01:23;;;;;;;16.83;8.25;;;8.40;99.90;;;;;;4882618;29;20140;-92
2023/03/20 00:03:49;;;;;;;;;;;8.40;99.90;;;;;;4899883;29;20100;-94
2023/03/20 00:08:54;;;;;;;18.27;8.40;;;8.30;99.90;;;;;;5492885;23;20056;-92
2023/03/20 00:12:11;;;;;;;16.15;8.38;;;8.30;99.90;;;;;;4900328;29;20048;-93
2023/03/20 00:15:04;;;;;;;17.92;9.20;;;7.80;99.90;;;;;;4903279;29;20135;-93
2023/03/20 00:17:45;;;;;;;18.02;8.63;;;8.30;99.90;;;;;;4910109;29;20134;-93
2023/03/20 00:23:28;;;;;;;17.67;8.18;;;8.30;99.90;;;;;;4902751;23;20056;-92
2023/03/20 00:25:57;;;;;;;21.80;8.95;;;7.70;99.90;;;;;;4881239;29;20059;-93
2023/03/20 00:28:55;;;;;;;18.48;8.90;;;8.30;99.90;;;;;;4881961;29;20112;-93
2023/03/20 00:31:40;;;;;;;18.30;9.82;;;8.20;99.90;;;;;;4942755;23;20131;-93
2023/03/20 00:34:18;;;;;;;19.83;8.68;;;9.60;99.90;;;;;;4922886;29;20499;-93
2023/03/20 00:36:56;;;;;;;17.85;8.20;;;8.20;99.90;;;;;;4917650;29;20079;-92
2023/03/20 00:39:40;;;;;;;17.13;7.63;;;8.70;99.90;;;;;;4901423;23;20056;-93
2023/03/20 00:42:07;;;;;;;;;;;9.50;99.90;;;;;;4887384;29;20082;-93
2023/03/20 00:44:53;;;;;;;18.63;8.68;;;8.10;99.90;;;;;;4898523;29;19971;-92
2023/03/20 00:47:40;;;;;;;20.73;8.60;;;7.70;99.90;;;;;;4899014;29;20052;-92
2023/03/20 00:50:32;;;;;;;19.92;9.40;;;8.30;99.90;;;;;;4905153;29;20056;-92
2023/03/20 00:52:58;;;;;;;23.77;10.25;;;8.40;99.90;;;;;;4890517;29;20147;-94
2023/03/20 00:55:31;;;;;;;26.58;10.48;;;8.80;99.90;;;;;;4902368;29;20405;-94
2023/03/20 00:58:18;;;;;;;22.00;10.55;;;8.70;99.90;;;;;;4915035;29;20049;-92
2023/03/20 01:01:21;;;;;;;25.15;10.20;;;8.60;99.90;;;;;;4903960;29;20071;-93
2023/03/20 01:04:08;;;;;;;22.40;10.25;;;8.10;99.90;;;;;;4863790;29;20580;-92
2023/03/20 01:06:39;;;;;;;26.48;10.63;;;8.40;99.90;;;;;;4866054;29;20053;-92
2023/03/20 01:09:23;;;;;;;25.20;10.68;;;8.90;99.90;;;;;;4896538;29;20041;-92
2023/03/20 01:11:57;;;;;;;27.30;11.35;;;7.90;99.90;;;;;;4895893;29;20044;-93
2023/03/20 01:14:35;;;;;;;25.52;11.15;;;9.00;99.90;;;;;;4881305;29;20045;-92
2023/03/20 01:17:21;;;;;;;30.30;12.00;;;8.50;99.90;;;;;;4897169;29;20127;-93
2023/03/20 01:19:48;;;;;;;27.23;12.30;;;8.30;99.90;;;;;;4898499;29;20079;-92
2023/03/20 01:22:28;;;;;;;26.88;12.30;;;8.00;99.90;;;;;;4880770;29;20049;-92
2023/03/20 01:24:54;;;;;;;25.25;10.27;;;8.00;99.90;;;;;;4898425;29;20050;-93
2023/03/20 01:27:26;;;;;;;25.60;10.32;;;8.00;99.90;;;;;;4886150;29;20052;-92
2023/03/20 01:30:15;;;;;;;22.45;10.00;;;9.10;99.90;;;;;;4897416;29;20489;-92
2023/03/20 01:32:57;;;;;;;23.08;9.85;;;8.00;99.90;;;;;;4829867;29;20058;-93
2023/03/20 01:35:35;;;;;;;22.48;9.35;;;8.70;99.90;;;;;;4896450;29;20055;-92
2023/03/20 01:38:20;;;;;;;20.75;8.60;;;9.10;99.90;;;;;;4900164;29;20080;-92
2023/03/20 01:41:12;;;;;;;;;;;;;;;;;;;;;
2023/03/20 01:44:26;;;;;;;18.73;7.43;;;8.00;99.90;;;;;;4892922;29;20044;-93
2023/03/20 01:46:55;;;;;;;17.08;7.40;;;7.60;99.90;;;;;;4964038;23;20503;-93
2023/03/20 01:50:19;;;;;;;17.45;7.43;;;7.90;99.90;;;;;;4937738;29;20078;-93
2023/03/20 01:53:06;;;;;;;17.50;7.13;;;7.90;99.90;;;;;;4928194;29;20083;-92
2023/03/20 01:55:53;;;;;;;15.27;6.70;;;8.50;99.90;;;;;;4938365;29;20142;-92
2023/03/20 01:58:38;;;;;;;16.63;6.68;;;7.90;99.90;;;;;;4938496;29;20130;-93
2023/03/20 02:01:23;;;;;;;16.95;5.63;;;9.10;99.90;;;;;;4924770;29;20035;-94
2023/03/20 02:04:02;;;;;;;15.77;6.22;;;9.10;99.90;;;;;;4940424;29;20079;-93
2023/03/20 02:06:44;;;;;;;14.60;5.80;;;9.10;99.90;;;;;;4925253;29;20050;-93
2023/03/20 02:09:18;;;;;;;17.38;6.30;;;8.50;99.90;;;;;;4938865;29;20114;-93
2023/03/20 02:11:47;;;;;;;;;;;9.20;99.90;;;;;;4940719;29;20044;-91
2023/03/20 02:14:32;;;;;;;18.67;7.40;;;8.90;99.90;;;;;;4939402;29;19930;-93
2023/03/20 02:20:46;;;;;;;14.50;6.60;;;7.90;99.90;;;;;;4911072;23;20061;-92
2023/03/20 02:23:33;;;;;;;15.30;6.15;;;;;;;;;;4901340;29;20480;-91
2023/03/20 02:26:25;;;;;;;16.70;6.05;;;7.80;99.90;;;;;;4882923;29;20060;-93
2023/03/20 02:29:41;;;;;;;17.85;6.15;;;7.60;99.90;;;;;;4883959;29;20040;-92
2023/03/20 02:33:01;;;;;;;17.30;6.30;;;7.70;99.90;;;;;;4900625;29;20108;-92
2023/03/20 02:36:07;;;;;;;20.73;6.70;;;7.70;99.90;;;;;;4901428;29;20056;-93
2023/03/20 02:38:55;;;;;;;16.05;6.75;;;7.70;99.90;;;;;;4901467;29;20088;-93
2023/03/20 02:41:52;;;;;;;17.15;6.50;;;7.70;99.90;;;;;;4894848;29;20052;-93
2023/03/20 02:44:57;;;;;;;16.77;7.83;;;7.60;99.90;;;;;;4899498;29;20059;-93
2023/03/20 02:47:44;;;;;;;16.58;7.40;;;7.60;99.90;;;;;;4796974;29;20478;-92
2023/03/20 02:50:52;;;;;;;17.27;7.20;;;7.60;99.90;;;;;;4884222;29;20052;-93
2023/03/20 02:53:54;;;;;;;20.25;7.18;;;7.60;99.90;;;;;;4899293;29;20044;-93
2023/03/20 02:56:54;;;;;;;16.40;7.70;;;7.70;99.90;;;;;;4900538;29;20045;-93
2023/03/20 02:59:42;;;;;;;20.52;8.30;;;7.60;99.90;;;;;;4899827;29;20454;-92
2023/03/20 03:02:34;;;;;;;18.63;7.45;;;7.90;99.90;;;;;;4882683;29;20468;-93
2023/03/20 03:05:15;;;;;;;19.05;7.95;;;8.10;99.90;;;;;;4899780;29;20041;-93
2023/03/20 03:08:03;;;;;;;19.77;7.93;;;7.50;99.90;;;;;;4898462;29;20059;-92
2023/03/20 03:10:38;;;;;;;17.97;8.87;;;7.60;99.90;;;;;;4899487;29;20422;-92
2023/03/20 03:16:47;;;;;;;23.38;9.27;;;7.40;99.90;;;;;;4900992;29;20065;-93
2023/03/20 03:19:20;;;;;;;22.88;10.13;;;7.00;99.90;;;;;;4882802;29;20109;-92
2023/03/20 03:21:52;;;;;;;21.25;9.98;;;8.10;99.90;;;;;;4879506;29;20045;-93
2023/03/20 03:24:30;;;;;;;23.63;10.27;;;8.00;99.90;;;;;;4879379;29;20049;-93
2023/03/20 03:26:58;;;;;;;22.70;10.23;;;7.50;99.90;;;;;;4879845;29;20116;-92
2023/03/20 03:29:30;;;;;;;21.92;10.45;;;7.30;99.90;;;;;;4879043;29;20079;-93
2023/03/20 03:32:21;;;;;;;23.90;11.07;;;8.30;99.90;;;;;;4883136;29;20505;-92
2023/03/20 03:35:13;;;;;;;25.80;11.15;;;7.60;99.90;;;;;;4902860;29;20032;-92
2023/03/20 03:38:05;;;;;;;21.67;10.52;;;6.90;99.90;;;;;;4889786;29;20095;-93
2023/03/20 03:40:42;;;;;;;23.40;10.57;;;7.40;99.90;;;;;;4884723;29;20109;-92
2023/03/20 03:43:31;;;;;;;23.00;10.82;;;7.60;99.90;;;;;;4880766;29;20044;-94
2023/03/20 03:46:18;;;;;;;24.92;11.23;;;7.50;99.90;;;;;;4881130;29;20049;-92
2023/03/20 03:49:04;;;;;;;22.17;10.43;;;8.00;99.90;;;;;;4884284;29;20051;-93
2023/03/20 03:51:54;;;;;;;24.95;11.27;;;7.20;99.90;;;;;;4880101;29;20512;-92
2023/03/20 03:54:33;;;;;;;24.25;11.10;;;7.50;99.90;;;;;;4879788;29;20489;-92
2023/03/20 03:57:23;;;;;;;28.08;12.07;;;8.70;99.90;;;;;;4878581;29;20055;-92
2023/03/20 04:00:07;;;;;;;26.45;11.98;;;8.30;99.90;;;;;;4878888;29;20513;-93
2023/03/20 04:02:34;;;;;;;26.58;11.80;;;7.10;99.90;;;;;;4879936;29;20498;-93
2023/03/20 04:05:17;;;;;;;27.25;11.63;;;7.30;99.90;;;;;;4878037;29;20049;-92
2023/03/20 04:07:47;;;;;;;24.67;10.73;;;7.50;99.90;;;;;;4879633;29;20049;-93
2023/03/20 04:12:51;;;;;;;23.50;11.02;;;7.60;99.90;;;;;;4931497;23;20044;-93
2023/03/20 04:15:21;;;;;;;26.27;11.30;;;8.30;99.90;;;;;;4900223;29;20048;-93
2023/03/20 04:17:59;;;;;;;27.13;12.05;;;8.40;99.90;;;;;;4900300;29;20051;-94
2023/03/20 04:20:40;;;;;;;20.92;10.43;;;7.30;99.90;;;;;;4900360;29;20087;-93
2023/03/20 04:23:18;;;;;;;;;;;8.00;99.90;;;;;;4917649;29;20084;-93
2023/03/20 04:25:52;;;;;;;;;;;7.50;99.90;;;;;;4901738;29;19973;-93
2023/03/20 04:31:21;;;;;;;19.60;9.30;;;7.50;99.90;;;;;;4943486;23;20052;-93
2023/03/20 04:33:47;;;;;;;20.17;8.88;;;6.80;99.90;;;;;;4939936;29;20040;-92
2023/03/20 04:36:22;;;;;;;20.40;9.23;;;7.50;99.90;;;;;;4924111;29;20059;-93
2023/03/20 04:39:41;;;;;;;19.40;8.27;;;7.50;99.90;;;;;;4908337;23;20345;-94
2023/03/20 04:42:34;;;;;;;19.60;7.80;;;6.80;99.90;;;;;;4899757;29;20530;-94
2023/03/20 04:45:21;;;;;;;20.33;7.60;;;7.50;99.90;;;;;;4915535;29;20060;-93
2023/03/20 04:54:01;;;;;;;;;;;7.50;99.90;;;;;;4877527;29;20056;-92
2023/03/20 04:56:27;;;;;;;20.38;7.65;;;7.30;99.90;;;;;;4863400;29;19924;-93
2023/03/20 04:59:14;;;;;;;17.90;7.18;;;8.60;99.90;;;;;;4863315;29;20045;-93
2023/03/20 05:04:15;;;;;;;16.25;7.40;;;7.40;99.90;;;;;;5308109;23;20056;-92
2023/03/20 05:06:47;;;;;;;16.67;7.07;;;7.60;99.90;;;;;;4906282;29;20108;-92
2023/03/20 05:16:55;;;;;;;16.80;7.20;;;7.40;99.90;;;;;;4900286;29;20493;-92
2023/03/20 05:20:02;;;;;;;19.37;7.50;;;7.50;99.90;;;;;;4882945;29;20116;-93
2023/03/20 05:22:27;;;;;;;19.60;8.10;;;7.50;99.90;;;;;;4881720;29;20045;-93
2023/03/20 05:24:53;;;;;;;21.63;8.68;;;8.20;99.90;;;;;;4901651;29;20048;-93
2023/03/20 05:27:28;;;;;;;20.83;7.82;;;8.00;99.90;;;;;;4887357;29;20058;-93
2023/03/20 05:33:45;;;;;;;19.60;8.88;;;6.90;99.90;;;;;;5260548;23;20060;-93
2023/03/20 05:36:24;;;;;;;17.93;8.73;;;7.40;99.90;;;;;;4858647;29;20054;-92
2023/03/20 05:39:23;;;;;;;21.63;9.77;;;7.10;99.90;;;;;;4851534;29;20042;-93
2023/03/20 05:41:49;;;;;;;22.65;9.90;;;6.80;99.90;;;;;;4846783;29;20049;-94
2023/03/20 05:44:15;;;;;;;20.40;9.25;;;8.00;99.90;;;;;;4844296;29;20513;-94
2023/03/20 05:47:00;;;;;;;20.10;10.57;;;8.50;99.90;;;;;;4845068;29;20061;-93
2023/03/20 05:49:35;;;;;;;19.67;10.23;;;7.40;99.90;;;;;;4844941;29;20077;-92
2023/03/20 05:52:01;;;;;;;20.97;10.53;;;8.40;99.90;;;;;;4848783;29;20128;-93
2023/03/20 05:54:27;;;;;;;21.43;11.00;;;8.40;99.90;;;;;;4864158;29;20045;-94
2023/03/20 05:57:12;;;;;;;21.93;11.33;;;8.40;99.90;;;;;;4858818;29;20402;-93
2023/03/20 05:59:38;;;;;;;20.53;10.20;;;7.30;99.90;;;;;;4848450;29;20056;-94
2023/03/20 06:02:16;;;;;;;21.20;10.20;;;8.40;99.90;;;;;;4845744;29;20045;-94
2023/03/20 06:04:41;;;;;;;18.77;10.35;;;8.40;99.90;;;;;;4908142;23;20062;-94
2023/03/20 06:07:07;;;;;;;20.97;10.43;;;7.40;99.90;;;;;;4902867;29;20131;-94
2023/03/20 06:09:51;;;;;;;;;;;8.60;99.90;;;;;;4912465;29;20048;-93
2023/03/20 06:12:35;;;;;;;23.27;11.47;;;8.80;99.90;;;;;;4922021;29;20061;-93
2023/03/20 06:15:22;;;;;;;24.23;11.05;;;7.90;99.90;;;;;;4918410;29;20507;-94
2023/03/20 06:17:48;;;;;;;21.60;11.00;;;9.00;99.90;;;;;;4918369;29;20519;-93
2023/03/20 06:20:32;;;;;;;19.80;10.43;;;7.30;99.90;;;;;;4907008;29;20052;-94
2023/03/20 06:22:58;;;;;;;20.33;10.77;;;9.10;99.90;;;;;;4902530;29;20048;-94
2023/03/20 06:25:32;;;;;;;19.13;10.27;;;8.50;99.90;;;;;;4902472;29;20091;-96
2023/03/20 06:27:58;;;;;;;19.48;10.32;;;7.60;99.90;;;;;;4919893;29;20055;-94
2023/03/20 06:30:29;;;;;;;19.70;9.82;;;8.50;99.90;;;;;;4911561;23;20341;-92
2023/03/20 06:32:55;;;;;;;17.93;9.77;;;9.00;99.90;;;;;;4920714;29;20048;-93
2023/03/20 06:35:21;;;;;;;21.23;10.10;;;9.00;99.90;;;;;;4937585;29;20054;-92
2023/03/20 06:38:02;;;;;;;19.60;10.63;;;8.60;99.90;;;;;;4939388;29;20400;-92
2023/03/20 06:40:48;;;;;;;20.08;9.20;;;9.10;99.90;;;;;;4940828;29;20071;-93
2023/03/20 06:43:14;;;;;;;18.02;9.38;;;8.70;99.90;;;;;;4934751;29;20459;-93
2023/03/20 06:45:39;;;;;;;19.73;10.63;;;8.20;99.90;;;;;;4924804;29;20150;-94
2023/03/20 06:52:05;;;;;;;16.63;8.10;;;7.50;99.90;;;;;;4925034;29;20051;-94
2023/03/20 06:54:34;;;;;;;19.77;8.97;;;7.80;99.90;;;;;;4938162;29;20480;-93
2023/03/20 06:56:59;;;;;;;18.27;8.50;;;7.40;99.90;;;;;;4937742;29;20043;-93
2023/03/20 06:59:51;;;;;;;17.97;8.50;;;9.30;99.90;;;;;;4936966;29;20036;-94
2023/03/20 07:05:34;;;;;;;17.23;7.88;;;7.90;99.90;;;;;;5101084;23;20057;-95
2023/03/20 07:08:00;;;;;;;19.15;7.95;;;8.00;99.90;;;;;;4878715;29;20057;-85
2023/03/20 07:10:27;;;;;;;18.55;7.80;;;8.20;99.90;;;;;;4880169;29;20405;-85
2023/03/20 07:12:53;;;;;;;16.13;7.25;;;8.00;99.90;;;;;;4879207;29;20481;-85
2023/03/20 07:15:23;;;;;;;17.25;8.27;;;7.90;99.90;;;;;;4877383;29;20104;-83
2023/03/20 07:18:04;;;;;;;22.67;8.02;;;8.00;99.90;;;;;;4879967;29;20117;-83
2023/03/20 07:20:39;;;;;;;17.05;8.63;;;8.10;99.90;;;;;;4878193;29;20060;-83
2023/03/20 07:23:05;;;;;;;15.43;7.07;;;7.40;99.90;;;;;;4878495;29;20045;-84
2023/03/20 07:25:33;;;;;;;16.42;7.38;;;9.20;99.90;;;;;;4878317;29;20045;-85
2023/03/20 07:27:59;;;;;;;13.23;6.97;;;8.10;99.90;;;;;;4878054;29;20097;-85
2023/03/20 07:30:25;;;;;;;17.95;8.65;;;9.10;99.90;;;;;;4888336;29;20049;-85
2023/03/20 07:33:44;;;;;;;21.23;9.98;;;8.10;99.90;;;;;;4899643;29;20059;-84
2023/03/20 07:36:25;;;;;;;17.30;7.15;;;8.10;99.90;;;;;;4843185;29;20506;-85
2023/03/20 07:39:16;;;;;;;15.63;7.80;;;9.10;99.90;;;;;;4942189;23;20081;-84
2023/03/20 07:45:25;;;;;;;15.10;7.05;;;7.70;99.90;;;;;;5002756;23;20051;-84
2023/03/20 07:47:51;;;;;;;15.73;6.65;;;8.10;99.90;;;;;;4899583;29;20056;-85
2023/03/20 07:50:23;;;;;;;18.88;7.38;;;8.20;99.90;;;;;;5089195;23;20076;-83
2023/03/20 07:52:52;;;;;;;19.02;7.50;;;8.10;99.90;;;;;;4883885;29;20095;-83
2023/03/20 07:55:29;;;;;;;16.17;9.45;;;8.10;99.90;;;;;;4880903;29;20442;-86
2023/03/20 07:58:10;;;;;;;15.95;7.38;;;8.10;99.90;;;;;;4897305;29;20052;-86
2023/03/20 08:00:36;;;;;;;25.25;13.20;;;7.60;99.90;;;;;;4881180;29;20048;-84
2023/03/20 08:06:10;;;;;;;22.58;12.05;;;8.40;99.90;;;;;;4820783;29;20134;-85
2023/03/20 08:08:54;;;;;;;16.88;7.38;;;8.40;99.90;;;;;;4822767;29;20499;-85
2023/03/20 08:11:19;;;;;;;;;;;8.30;99.90;;;;;;4936515;23;20060;-85
2023/03/20 08:13:49;;;;;;;14.02;6.68;;;8.40;99.90;;;;;;4974880;23;19931;-85
2023/03/20 08:19:02;;;;;;;17.00;7.28;;;8.40;99.90;;;;;;4869149;29;20052;-84
2023/03/20 08:21:30;;;;;;;18.80;10.07;;;8.50;99.90;;;;;;4877793;29;20053;-85
2023/03/20 08:24:32;;;;;;;18.15;7.63;;;8.50;99.90;;;;;;4863999;29;20903;-85
2023/03/20 08:27:01;;;;;;;17.10;7.72;;;8.60;99.90;;;;;;4877998;29;20104;-85
2023/03/20 08:29:27;;;;;;;18.13;7.85;;;8.60;99.90;;;;;;4885302;23;20049;-85
2023/03/20 08:32:18;;;;;;;17.27;7.93;;;8.50;99.90;;;;;;4861536;29;20052;-86
2023/03/20 08:34:44;;;;;;;19.27;8.60;;;8.30;99.90;;;;;;4862528;29;20482;-85
2023/03/20 08:37:37;;;;;;;16.85;8.10;;;9.50;99.90;;;;;;4878830;29;20053;-88
2023/03/20 08:43:08;;;;;;;16.83;8.07;;;8.70;99.90;;;;;;4878206;29;20512;-86
2023/03/20 08:46:01;;;;;;;16.52;8.05;;;8.80;99.90;;;;;;4878122;29;20041;-86
2023/03/20 08:48:51;;;;;;;21.30;8.80;;;8.20;99.90;;;;;;4878726;29;20120;-86
2023/03/20 08:51:17;;;;;;;16.40;8.27;;;8.80;99.90;;;;;;4861796;29;20588;-86
2023/03/20 08:53:54;;;;;;;17.70;8.52;;;8.90;99.90;;;;;;4861371;29;20081;-86
2023/03/20 08:56:35;;;;;;;17.27;8.60;;;9.00;99.90;;;;;;4861736;29;20052;-86
2023/03/20 08:59:28;;;;;;;18.40;8.35;;;10.00;99.90;;;;;;4865110;29;20049;-86
2023/03/20 09:02:15;;;;;;;19.35;8.57;;;9.10;99.90;;;;;;4865730;29;20404;-87
2023/03/20 09:05:04;;;;;;;18.67;9.27;;;10.20;99.90;;;;;;4882559;29;20048;-87
2023/03/20 09:07:45;;;;;;;19.83;8.57;;;9.30;99.90;;;;;;4863724;29;20170;-90
2023/03/20 09:10:36;;;;;;;18.17;8.50;;;10.50;99.90;;;;;;4891656;29;20102;-86
2023/03/20 09:16:22;;;;;;;18.75;8.50;;;8.90;99.90;;;;;;4900777;23;20122;-87
2023/03/20 09:19:36;;;;;;;19.67;8.68;;;10.80;99.90;;;;;;4900878;29;20116;-87
2023/03/20 09:22:22;;;;;;;18.35;8.40;;;9.70;99.90;;;;;;4881185;29;20049;-87
2023/03/20 09:24:51;;;;;;;19.95;8.63;;;10.60;99.90;;;;;;4884350;29;20045;-87
2023/03/20 09:27:32;;;;;;;20.05;8.52;;;9.80;99.90;;;;;;4900079;29;20052;-86
2023/03/20 09:29:57;;;;;;;17.75;8.30;;;11.10;99.90;;;;;;4899387;29;20048;-87
2023/03/20 09:32:42;;;;;;;15.43;8.13;;;9.90;99.90;;;;;;4900222;29;20515;-86
2023/03/20 09:35:12;;;;;;;;;;;11.20;99.90;;;;;;4899537;29;20516;-87
2023/03/20 09:38:03;;;;;;;18.75;8.45;;;9.90;99.90;;;;;;4899526;29;20430;-86
2023/03/20 09:40:59;;;;;;;17.52;8.50;;;10.00;99.90;;;;;;4902212;29;20053;-87
2023/03/20 09:44:18;;;;;;;19.90;11.02;;;9.90;99.90;;;;;;4899476;29;20045;-86
2023/03/20 09:47:40;;;;;;;21.77;10.98;;;10.70;99.90;;;;;;4916078;29;20053;-86
2023/03/20 09:50:25;;;;;;;17.33;8.80;;;10.60;99.90;;;;;;4904448;29;20063;-86
2023/03/20 10:00:45;;;;;;;17.27;9.02;;;10.20;99.90;;;;;;4909291;29;20164;-86
2023/03/20 10:04:08;;;;;;;18.27;8.95;;;10.00;99.90;;;;;;4908499;29;20044;-87
2023/03/20 10:13:04;;;;;;;16.60;10.60;;;11.60;99.90;;;;;;4916905;29;20050;-87
2023/03/20 10:15:52;;;;;;;17.95;8.95;;;10.30;99.90;;;;;;4919427;29;20052;-86
2023/03/20 10:18:26;;;;;;;14.88;7.72;;;11.80;99.90;;;;;;4939480;23;20045;-86
2023/03/20 10:24:02;;;;;;;17.52;8.07;;;10.50;99.90;;;;;;5172220;23;20059;-87
2023/03/20 10:26:51;;;;;;;16.05;7.28;;;10.50;99.90;;;;;;4901603;29;20048;-86
2023/03/20 10:43:31;;;;;;;17.15;7.35;;;9.90;99.90;;;;;;4906100;29;20135;-87
2023/03/20 10:47:01;;;;;;;14.32;6.90;;;11.50;99.90;;;;;;4904476;29;20056;-87
2023/03/20 10:55:53;;;;;;;14.95;6.53;;;10.60;99.90;;;;;;5307944;23;20063;-87
2023/03/20 10:58:23;;;;;;;13.55;6.15;;;10.50;99.90;;;;;;4917818;29;20055;-86
2023/03/20 11:01:23;;;;;;;15.02;6.80;;;11.30;99.90;;;;;;4917369;29;20126;-88
2023/03/20 11:08:13;;;;;;;15.70;7.72;;;10.60;99.90;;;;;;4922314;29;20616;-86
2023/03/20 11:28:31;;;;;;;16.77;8.25;;;10.10;99.90;;;;;;4878854;29;20114;-90
2023/03/20 11:31:14;;;;;;;29.52;18.80;;;9.80;99.90;;;;;;4879538;29;20109;-90
2023/03/20 11:34:26;;;;;;;17.60;9.95;;;10.00;99.90;;;;;;4879445;29;20061;-88
2023/03/20 11:37:44;;;;;;;20.50;12.00;;;9.90;99.90;;;;;;4880164;29;20052;-87
2023/03/20 11:40:46;;;;;;;16.25;9.38;;;9.20;99.90;;;;;;4877898;29;20128;-88
2023/03/20 11:43:24;;;;;;;16.15;8.73;;;9.80;99.90;;;;;;4879367;29;20052;-88
2023/03/20 11:48:46;;;;;;;15.73;7.82;;;9.80;99.90;;;;;;4920544;23;20060;-87
2023/03/20 11:51:18;;;;;;;15.15;7.85;;;9.90;99.90;;;;;;4980131;23;20093;-89
2023/03/20 11:57:57;;;;;;;13.63;6.97;;;9.70;99.90;;;;;;4880319;29;20052;-88
2023/03/20 12:00:27;;;;;;;18.13;8.23;;;8.90;99.90;;;;;;4863541;29;20401;-88
2023/03/20 12:02:53;;;;;;;16.80;9.73;;;10.80;99.90;;;;;;4927759;23;20060;-89
2023/03/20 12:05:39;;;;;;;15.75;7.65;;;9.80;99.90;;;;;;4893270;29;20052;-89
2023/03/20 12:08:30;;;;;;;15.70;7.53;;;10.30;99.90;;;;;;4909623;29;20059;-88
2023/03/20 12:15:03;;;;;;;15.13;7.32;;;9.70;99.90;;;;;;4926795;29;20043;-89
2023/03/20 12:27:28;;;;;;;15.93;7.60;;;10.90;99.90;;;;;;4933401;23;20049;31
2023/03/20 12:30:21;;;;;;;17.88;7.90;;;9.60;99.90;;;;;;4897939;29;20076;-87
2023/03/20 12:33:01;;;;;;;14.38;6.78;;;9.70;99.90;;;;;;4862350;29;20061;-90
2023/03/20 12:35:45;;;;;;;;;;;;;;;;;;;;;
2023/03/20 12:38:34;;;;;;;16.55;7.30;;;9.70;99.90;;;;;;4878239;29;20474;-88
2023/03/20 12:41:35;;;;;;;14.80;6.97;;;10.80;99.90;;;;;;4881044;29;20045;-88
2023/03/20 12:48:25;;;;;;;;;;;;;;;;;;;;;
2023/03/20 12:55:09;;;;;;;14.23;5.57;;;10.00;99.90;;;;;;4998557;23;20572;-92
2023/03/20 12:58:26;;;;;;;12.18;5.25;;;10.10;99.90;;;;;;4898315;29;20400;-90
2023/03/20 13:01:32;;;;;;;12.25;5.63;;;9.70;99.90;;;;;;4897721;29;20580;-89
2023/03/20 13:04:13;;;;;;;11.38;5.32;;;10.00;99.90;;;;;;4882392;29;20127;-86
2023/03/20 13:06:59;;;;;;;13.43;4.93;;;9.80;99.90;;;;;;4883313;23;20059;-86
2023/03/20 13:09:46;;;;;;;13.45;5.70;;;10.60;99.90;;;;;;4930165;29;20039;-89
2023/03/20 13:12:12;;;;;;;10.07;4.90;;;9.60;99.90;;;;;;4917517;29;20150;-87
2023/03/20 13:14:47;;;;;;;11.32;4.60;;;10.80;99.90;;;;;;4934496;29;20134;-87
2023/03/20 13:17:27;;;;;;;9.93;4.88;;;9.60;99.90;;;;;;4935289;29;20063;-87
2023/03/20 13:20:20;;;;;;;12.93;4.45;;;9.50;99.90;;;;;;4917439;29;20051;-87
2023/03/20 13:23:11;;;;;;;11.60;4.68;;;9.50;99.90;;;;;;4918629;29;20059;-87
2023/03/20 13:25:55;;;;;;;10.80;4.72;;;9.50;99.90;;;;;;4889502;29;20488;-87
2023/03/20 13:28:42;;;;;;;10.82;4.80;;;9.50;99.90;;;;;;4891696;29;20488;-87
2023/03/20 13:31:25;;;;;;;11.75;5.13;;;9.40;99.90;;;;;;4886194;29;20052;-88
2023/03/20 13:34:17;;;;;;;18.75;9.65;;;10.10;99.90;;;;;;4913911;29;20047;-88
2023/03/20 13:36:51;;;;;;;13.98;5.95;;;9.20;99.90;;;;;;4914114;29;20044;-87
2023/03/20 13:39:25;;;;;;;10.15;4.55;;;9.20;99.90;;;;;;4921976;29;20056;-86
2023/03/20 13:41:53;;;;;;;11.18;4.50;;;9.20;99.90;;;;;;4938707;29;20044;-87
2023/03/20 13:44:21;;;;;;;17.55;6.53;;;10.30;99.90;;;;;;4916678;29;20048;-87
2023/03/20 13:46:52;;;;;;;11.48;4.50;;;10.30;99.90;;;;;;4921041;29;20044;-87
2023/03/20 13:49:35;;;;;;;11.27;4.28;;;9.90;99.90;;;;;;4915756;29;20085;-87
2023/03/20 13:52:13;;;;;;;9.32;3.75;;;9.00;99.90;;;;;;4902365;29;20059;-87
2023/03/20 13:55:09;;;;;;;11.45;5.00;;;8.90;99.90;;;;;;4900736;29;20168;-85
2023/03/20 13:58:00;;;;;;;11.55;5.15;;;9.00;99.90;;;;;;4902139;29;20139;-84
2023/03/20 14:00:39;;;;;;;14.68;5.75;;;9.00;99.90;;;;;;4904494;29;20055;-85
2023/03/20 14:03:31;;;;;;;12.38;4.50;;;10.20;99.90;;;;;;4899277;29;20058;-85
2023/03/20 14:05:57;;;;;;;10.45;4.50;;;9.50;99.90;;;;;;4879175;29;20056;-85
2023/03/20 14:08:26;;;;;;;11.27;4.30;;;9.30;99.90;;;;;;4883699;29;20049;-85
2023/03/20 14:11:20;;;;;;;12.02;4.80;;;9.00;99.90;;;;;;4884199;29;20095;-87
2023/03/20 14:13:54;;;;;;;10.85;4.53;;;9.00;99.90;;;;;;4882182;29;20091;-87
2023/03/20 14:16:20;;;;;;;11.93;4.65;;;9.10;99.90;;;;;;4883289;29;20045;-85
2023/03/20 14:19:03;;;;;;;12.68;4.30;;;9.80;99.90;;;;;;4903076;29;20068;-87
2023/03/20 14:24:37;;;;;;;11.88;4.30;;;9.10;99.90;;;;;;4899542;23;20048;-87
2023/03/20 14:31:29;;;;;;;12.35;4.70;;;8.50;99.90;;;;;;4923042;23;20155;-86
2023/03/20 14:34:31;;;;;;;12.90;4.30;;;8.90;99.90;;;;;;4902805;29;20077;-86
2023/03/20 14:37:09;;;;;;;;;;;;;;;;;;;;;
2023/03/20 14:40:09;;;;;;;11.30;4.20;;;8.80;99.90;;;;;;4847796;29;20449;-87
2023/03/20 14:46:26;;;;;;;11.38;4.25;;;8.80;99.90;;;;;;4901251;23;20057;-86
2023/03/20 14:49:24;;;;;;;11.13;3.95;;;9.70;99.90;;;;;;4859120;29;20060;-86
2023/03/20 14:58:30;;;;;;;10.77;4.10;;;7.80;99.90;;;;;;4806463;29;20146;-86
2023/03/20 15:07:51;;;;;;;11.55;5.30;;;8.50;99.90;;;;;;4895450;29;20125;-87
2023/03/20 15:10:27;;;;;;;11.23;5.00;;;9.40;99.90;;;;;;4903008;29;20535;-87
2023/03/20 15:13:25;;;;;;;12.57;5.77;;;8.30;99.90;;;;;;4902659;29;20048;-85
2023/03/20 15:16:27;;;;;;;15.10;5.40;;;8.30;99.90;;;;;;4890706;29;20504;-86
2023/03/20 15:22:28;;;;;;;16.07;5.97;;;8.10;99.90;;;;;;5816403;23;20007;-85
2023/03/20 15:32:01;;;;;;;16.23;6.88;;;7.50;99.90;;;;;;4915201;23;20075;-84
2023/03/20 15:34:31;;;;;;;15.17;7.13;;;8.00;99.90;;;;;;4889065;29;20139;-84
2023/03/20 15:37:01;;;;;;;14.05;7.57;;;7.90;99.90;;;;;;4908188;29;20519;-84
2023/03/20 15:39:39;;;;;;;16.63;7.57;;;7.90;99.90;;;;;;4891443;29;20075;-84
2023/03/20 15:42:30;;;;;;;;;;;;;;;;;;;;;
2023/03/20 15:56:41;;;;;;;17.40;8.73;;;7.20;99.90;;;;;;4922667;29;20052;-85
2023/03/20 15:59:30;;;;;;;17.40;8.73;;;6.80;99.90;;;;;;4920907;29;20059;-85
2023/03/20 16:05:31;;;;;;;16.63;9.00;;;7.80;99.90;;;;;;4907617;29;20055;-85
2023/03/20 16:28:31;;;;;;;18.80;10.27;;;7.70;99.90;;;;;;4879342;29;20048;-83
2023/03/20 16:49:33;;;;;;;20.42;10.65;;;7.30;99.90;;;;;;5005623;23;20050;-86
2023/03/20 17:07:27;;;;;;;21.27;11.48;;;8.50;99.90;;;;;;4881785;29;20164;-84
2023/03/20 17:10:26;;;;;;;22.52;12.18;;;7.40;99.90;;;;;;4824810;29;20122;-84
2023/03/20 17:13:47;;;;;;;21.73;11.88;;;7.70;99.90;;;;;;4894642;29;20544;-85
2023/03/20 17:21:05;;;;;;;24.42;12.82;;;7.60;99.90;;;;;;4898442;29;20049;-85
2023/03/20 17:23:31;;;;;;;22.55;12.43;;;7.60;99.90;;;;;;4814484;29;20050;-84
2023/03/20 17:29:00;;;;;;;23.30;12.15;;;7.60;99.90;;;;;;4907698;23;20080;-86
2023/03/20 17:31:25;;;;;;;26.27;13.93;;;7.60;99.90;;;;;;4882161;29;20063;-86
2023/03/20 17:33:51;;;;;;;28.30;15.65;;;7.60;99.90;;;;;;4888913;29;20045;-85
2023/03/20 17:36:26;;;;;;;27.25;14.85;;;7.60;99.90;;;;;;4900144;29;20361;-85
2023/03/20 17:38:53;;;;;;;28.58;14.38;;;7.60;99.90;;;;;;4900697;29;20095;-85
2023/03/20 17:41:19;;;;;;;24.73;14.40;;;8.00;99.90;;;;;;4882817;29;20139;-85
2023/03/20 17:43:46;;;;;;;27.50;16.13;;;8.20;99.90;;;;;;4883959;29;20048;-85
2023/03/20 17:49:12;;;;;;;28.20;15.57;;;7.70;99.90;;;;;;4980265;23;20496;-84
2023/03/20 17:51:37;;;;;;;26.90;16.65;;;7.70;99.90;;;;;;4902553;29;20377;-85
2023/03/20 17:54:25;;;;;;;30.05;17.27;;;7.70;99.90;;;;;;4901538;29;20055;-86
2023/03/20 17:59:29;;;;;;;34.08;16.45;;;7.70;99.90;;;;;;4916394;23;20060;-84
2023/03/20 18:02:06;;;;;;;29.05;17.10;;;8.70;99.90;;;;;;4888479;29;20127;-87
2023/03/20 18:08:46;;;;;;;32.63;18.00;;;7.80;99.90;;;;;;4872291;29;20511;-87
2023/03/20 18:11:25;;;;;;;30.23;18.33;;;7.80;99.90;;;;;;4888790;29;20122;-87
2023/03/20 18:14:16;;;;;;;33.03;17.35;;;8.90;99.90;;;;;;4901604;29;20048;-86
2023/03/20 18:16:47;;;;;;;31.35;17.88;;;7.00;99.90;;;;;;4884282;29;20509;-88
2023/03/20 18:27:05;;;;;;;32.10;17.10;;;7.30;99.90;;;;;;4864386;29;20109;-88
2023/03/20 18:29:36;;;;;;;31.45;17.58;;;7.10;99.90;;;;;;4839311;29;20469;-92
2023/03/20 19:04:46;;;;;;;37.58;20.52;;;7.80;99.90;;;;;;5171987;23;20567;-89
2023/03/20 19:07:24;;;;;;;41.13;22.95;;;9.00;99.90;;;;;;4917628;29;20058;-89
2023/03/20 19:10:38;;;;;;;;;;;;;;;;;;;;;
2023/03/20 19:20:55;;;;;;;;;;;;;;;;;;;;;
2023/03/20 19:23:51;;;;;;;;;;;8.60;99.90;;;;;;4858588;29;20129;-94